Urb La Cruv, Puerto Rico
Current Conditions -  °F | °C
As of 9:56 AM on Monday 26 Jan 2015 (Local Time) from TJSJ Reporting Station
Scattered Clouds Scattered Clouds  
Wind Chill: 82°   Ceiling: Unl
Heat Index: 87°   Visibility: 10mi
Dew Point: 72°   Wind: 8mph
Humidity: 71%   Direction: 90°E
Pressure: 30.04"   Gusts: NA
Location:  18.4061°N, 66.3012°W
Report Text: TJSJ 261356Z 09007KT 10SM FEW035 SCT100 28/22 A3004 RMK AO2 SLP172 VCSH S T02780222
Loading
Personal Weather Stations






























Interactive Weather Map New forecast layout! Learn more

10-Day Weather Forecast

Advertisements
Track Severe Weather on mobile